Terminal Aerodrome Forecast
Issued by NWS Albany, NY

Home | Current Version | Previous Version | Text Only | Print | Product List | Glossary On
Versions: 1 2 3 4 5 6 7 8 9 10 11 12 13 14 15 16 17 18 19 20 21 22 23 24 25 26 27 28
000
FTUS41 KALY 251133
TAFGFL
TAF
KGFL 251133Z 2512/2612 16005KT 5SM -SHRA BR OVC035
      TEMPO 2512/2516 3SM -SHRA OVC015
     FM251600 19007KT P6SM VCSH BKN030
     FM252200 22005KT P6SM SCT030
     FM260600 VRB03KT 6SM BR SCT007=

USA.gov is the U.S. government's official web portal to all federal, state and local government web resources and services.